createdAt,value
2018-12-04T00:00:36.658Z,100.00
2018-12-04T00:03:05.706Z,100.00
2018-12-04T00:05:34.902Z,100.00
2018-12-04T00:08:03.597Z,100.00
2018-12-04T00:10:31.926Z,100.00
2018-12-04T00:13:00.273Z,100.00
2018-12-04T00:15:28.626Z,100.00
2018-12-04T00:17:57.087Z,100.00
2018-12-04T00:20:25.392Z,100.00
2018-12-04T00:22:53.689Z,100.00
2018-12-04T00:25:22.078Z,100.00
2018-12-04T00:27:50.382Z,100.00
2018-12-04T00:30:18.692Z,100.00
2018-12-04T00:32:47.067Z,100.00
2018-12-04T00:35:15.378Z,100.00
2018-12-04T00:37:43.678Z,100.00
2018-12-04T00:40:12.020Z,100.00
2018-12-04T00:42:40.460Z,100.00
2018-12-04T00:45:09.964Z,100.00
2018-12-04T00:47:38.283Z,100.00
2018-12-04T00:50:06.880Z,100.00
2018-12-04T00:52:35.185Z,100.00
2018-12-04T00:55:03.650Z,100.00
2018-12-04T00:57:31.991Z,100.00
2018-12-04T01:00:00.313Z,100.00
2018-12-04T01:02:28.689Z,100.00
2018-12-04T01:04:57.092Z,100.00
2018-12-04T01:07:25.431Z,100.00
2018-12-04T01:09:53.742Z,100.00
2018-12-04T01:12:22.025Z,100.00
2018-12-04T01:14:50.402Z,100.00
2018-12-04T01:17:18.715Z,100.00
2018-12-04T01:19:47.050Z,100.00
2018-12-04T01:22:15.350Z,100.00
2018-12-04T01:24:43.690Z,100.00
2018-12-04T01:27:12.045Z,100.00
2018-12-04T01:29:40.433Z,100.00
2018-12-04T01:32:08.749Z,100.00
2018-12-04T01:34:37.057Z,100.00
2018-12-04T01:37:05.445Z,100.00
2018-12-04T01:39:33.745Z,100.00
2018-12-04T01:42:02.044Z,100.00
2018-12-04T01:44:30.495Z,100.00
2018-12-04T01:46:58.862Z,100.00
2018-12-04T01:49:27.221Z,100.00
2018-12-04T01:51:55.520Z,100.00
2018-12-04T01:54:23.865Z,100.00
2018-12-04T01:56:52.143Z,100.00
2018-12-04T01:59:20.473Z,100.00
2018-12-04T02:01:48.839Z,100.00
2018-12-04T02:04:17.171Z,100.00
2018-12-04T02:06:45.476Z,99.43
2018-12-04T02:09:13.881Z,99.38
2018-12-04T02:11:42.376Z,98.26
2018-12-04T02:14:10.674Z,97.48
2018-12-04T02:16:39.032Z,97.84
2018-12-04T02:19:07.366Z,97.90
2018-12-04T02:21:35.670Z,97.73
2018-12-04T02:24:04.064Z,96.84
2018-12-04T02:26:32.390Z,95.61
2018-12-04T02:29:00.838Z,94.58
2018-12-04T02:31:29.210Z,94.14
2018-12-04T02:33:57.511Z,93.22
2018-12-04T02:36:25.814Z,92.67
2018-12-04T02:38:54.137Z,93.04
2018-12-04T02:41:22.493Z,92.32
2018-12-04T02:43:50.861Z,93.57
2018-12-04T02:46:19.172Z,92.14
2018-12-04T02:48:47.540Z,93.42
2018-12-04T02:51:15.886Z,92.80
2018-12-04T02:53:44.225Z,93.01
2018-12-04T02:56:12.532Z,93.65
2018-12-04T02:58:40.809Z,95.11
2018-12-04T03:01:09.125Z,94.48
2018-12-04T03:03:37.424Z,94.33
2018-12-04T03:06:05.746Z,95.44
2018-12-04T03:08:34.041Z,95.30
2018-12-04T03:11:02.523Z,95.46
2018-12-04T03:13:30.845Z,95.02
2018-12-04T03:15:59.366Z,95.41
2018-12-04T03:18:27.720Z,96.25
2018-12-04T03:20:56.021Z,95.66
2018-12-04T03:23:24.314Z,95.65
2018-12-04T03:25:52.657Z,95.89
2018-12-04T03:28:20.929Z,94.83
2018-12-04T03:30:49.257Z,96.27
2018-12-04T03:33:28.782Z,95.41
2018-12-04T03:35:57.226Z,95.47
2018-12-04T03:38:25.492Z,95.46
2018-12-04T03:40:53.790Z,94.97
2018-12-04T03:43:22.309Z,94.18
2018-12-04T03:45:50.681Z,94.55
2018-12-04T03:48:18.973Z,94.05
2018-12-04T03:50:47.327Z,95.16
2018-12-04T03:53:22.357Z,94.23
2018-12-04T03:55:50.677Z,94.36
2018-12-04T03:58:19.108Z,94.75
2018-12-04T04:00:47.493Z,95.11
2018-12-04T04:03:15.768Z,95.68
2018-12-04T04:05:44.080Z,94.93
2018-12-04T04:08:12.497Z,95.22
2018-12-04T04:10:40.919Z,95.24
2018-12-04T04:13:09.195Z,96.15
2018-12-04T04:15:37.614Z,96.80
2018-12-04T04:18:05.967Z,96.60
2018-12-04T04:20:34.402Z,97.12
2018-12-04T04:23:02.822Z,97.22
2018-12-04T04:25:31.213Z,97.47
2018-12-04T04:27:59.618Z,97.35
2018-12-04T04:30:27.969Z,98.02
2018-12-04T04:32:56.309Z,98.41
2018-12-04T04:35:24.705Z,99.09
2018-12-04T04:37:53.013Z,99.00
2018-12-04T04:40:21.382Z,98.90
2018-12-04T04:42:49.679Z,99.19
2018-12-04T04:45:17.983Z,99.24
2018-12-04T04:47:46.287Z,98.75
2018-12-04T04:50:14.634Z,100.00
2018-12-04T04:52:42.926Z,99.11
2018-12-04T04:55:11.240Z,98.81
2018-12-04T04:57:39.578Z,98.27
2018-12-04T05:00:08.144Z,99.36
2018-12-04T05:02:36.629Z,97.80
2018-12-04T05:05:05.555Z,97.38
2018-12-04T05:07:33.960Z,97.25
2018-12-04T05:10:02.294Z,96.15
2018-12-04T05:12:30.619Z,95.60
2018-12-04T05:14:58.937Z,94.40
2018-12-04T05:17:27.237Z,95.33
2018-12-04T05:19:55.567Z,94.91
2018-12-04T05:22:23.874Z,93.66
2018-12-04T05:24:52.437Z,93.56
2018-12-04T05:27:20.748Z,94.32
2018-12-04T05:29:49.126Z,93.96
2018-12-04T05:32:17.443Z,93.04
2018-12-04T05:34:45.746Z,94.09
2018-12-04T05:37:14.078Z,93.08
2018-12-04T05:39:42.354Z,93.86
2018-12-04T05:42:10.688Z,92.97
2018-12-04T05:44:38.981Z,93.03
2018-12-04T05:47:07.621Z,91.34
2018-12-04T05:49:36.110Z,91.97
2018-12-04T05:52:04.450Z,92.67
2018-12-04T05:54:32.741Z,92.54
2018-12-04T05:57:01.256Z,91.92
2018-12-04T05:59:29.597Z,90.04
2018-12-04T06:01:57.918Z,89.92
2018-12-04T06:04:26.260Z,90.84
2018-12-04T06:06:54.584Z,91.12
2018-12-04T06:09:22.968Z,91.92
2018-12-04T06:11:51.268Z,91.31
2018-12-04T06:14:19.536Z,89.04
2018-12-04T06:16:47.868Z,90.55
2018-12-04T06:19:16.195Z,90.44
2018-12-04T06:21:44.565Z,89.42
2018-12-04T06:24:12.859Z,90.03
2018-12-04T06:26:41.166Z,90.58
2018-12-04T06:29:09.461Z,90.35
2018-12-04T06:31:37.878Z,89.79
2018-12-04T06:34:06.302Z,88.30
2018-12-04T06:36:34.612Z,89.80
2018-12-04T06:39:03.033Z,89.08
2018-12-04T06:41:31.337Z,89.19
2018-12-04T06:43:59.637Z,88.86
2018-12-04T06:46:27.980Z,89.73
2018-12-04T06:48:56.283Z,89.37
2018-12-04T06:51:24.630Z,90.80
2018-12-04T06:53:52.942Z,89.34
2018-12-04T06:56:21.354Z,90.17
2018-12-04T06:58:49.629Z,91.54
2018-12-04T07:01:17.949Z,90.98
2018-12-04T07:03:46.437Z,92.00
2018-12-04T07:06:14.734Z,92.83
2018-12-04T07:08:43.056Z,93.79
2018-12-04T07:11:11.493Z,92.40
2018-12-04T07:13:40.040Z,94.01
2018-12-04T07:16:08.812Z,94.38
2018-12-04T07:18:37.109Z,95.46
2018-12-04T07:21:05.516Z,94.81
2018-12-04T07:23:33.840Z,93.65
2018-12-04T07:26:02.257Z,95.07
2018-12-04T07:28:30.534Z,95.18
2018-12-04T07:30:58.841Z,94.90
2018-12-04T07:33:27.169Z,94.83
2018-12-04T07:35:55.518Z,93.63
2018-12-04T07:38:23.943Z,93.20
2018-12-04T07:40:52.251Z,93.86
2018-12-04T07:43:20.539Z,94.33
2018-12-04T07:45:48.824Z,94.64
2018-12-04T07:48:17.206Z,94.30
2018-12-04T07:50:45.555Z,93.71
2018-12-04T07:53:13.938Z,94.30
2018-12-04T07:55:45.627Z,94.12
2018-12-04T07:58:15.698Z,93.61
2018-12-04T08:00:44.149Z,93.64
2018-12-04T08:03:12.545Z,93.94
2018-12-04T08:05:41.006Z,92.94
2018-12-04T08:08:09.336Z,94.19
2018-12-04T08:10:37.825Z,93.49
2018-12-04T08:13:06.227Z,94.91
2018-12-04T08:15:34.517Z,93.67
2018-12-04T08:18:02.924Z,94.43
2018-12-04T08:20:31.261Z,94.37
2018-12-04T08:22:59.737Z,94.56
2018-12-04T08:25:28.074Z,94.47
2018-12-04T08:27:56.480Z,94.56
2018-12-04T08:30:24.774Z,94.28
2018-12-04T08:32:53.101Z,94.12
2018-12-04T08:35:21.449Z,94.03
2018-12-04T08:37:49.830Z,93.73
2018-12-04T08:40:18.091Z,92.62
2018-12-04T08:42:46.392Z,92.24
2018-12-04T08:45:14.701Z,92.88
2018-12-04T08:47:43.004Z,93.11
2018-12-04T08:50:11.441Z,94.52
2018-12-04T08:52:39.749Z,94.92
2018-12-04T08:55:08.012Z,94.04
2018-12-04T08:57:36.301Z,93.00
2018-12-04T09:00:05.867Z,93.66
2018-12-04T09:02:34.190Z,93.52
2018-12-04T09:05:02.485Z,93.24
2018-12-04T09:07:30.785Z,94.94
2018-12-04T09:09:59.064Z,94.30
2018-12-04T09:12:27.362Z,93.61
2018-12-04T09:14:55.711Z,93.79
2018-12-04T09:17:24.023Z,94.53
2018-12-04T09:19:52.421Z,93.67
2018-12-04T09:22:20.831Z,93.24
2018-12-04T09:24:49.245Z,91.53
2018-12-04T09:27:17.668Z,91.94
2018-12-04T09:29:46.149Z,92.95
2018-12-04T09:32:14.565Z,91.27
2018-12-04T09:34:42.882Z,91.44
2018-12-04T09:37:11.193Z,92.60
2018-12-04T09:39:39.568Z,92.44
2018-12-04T09:42:07.924Z,89.75
2018-12-04T09:44:36.261Z,91.23
2018-12-04T09:47:04.594Z,88.86
2018-12-04T09:49:32.962Z,87.43
2018-12-04T09:52:01.314Z,88.23
2018-12-04T09:54:29.678Z,86.77
2018-12-04T09:56:57.979Z,88.71
2018-12-04T09:59:26.411Z,87.85
2018-12-04T10:01:54.694Z,85.72
2018-12-04T10:04:23.030Z,86.01
2018-12-04T10:06:51.362Z,85.81
2018-12-04T10:09:19.799Z,84.95
2018-12-04T10:11:48.208Z,86.31
2018-12-04T10:14:16.666Z,85.82
2018-12-04T10:16:44.981Z,86.54
2018-12-04T10:19:13.437Z,83.91
2018-12-04T10:21:42.617Z,85.00
2018-12-04T10:24:10.937Z,85.89
2018-12-04T10:26:39.545Z,84.08
2018-12-04T10:29:07.938Z,84.45
2018-12-04T10:31:36.502Z,84.55
2018-12-04T10:34:04.857Z,84.08
2018-12-04T10:36:33.197Z,82.81
2018-12-04T10:39:01.779Z,84.04
2018-12-04T10:41:30.098Z,83.55
2018-12-04T10:43:58.486Z,83.37
2018-12-04T10:46:26.802Z,83.39
2018-12-04T10:48:55.286Z,82.67
2018-12-04T10:51:23.556Z,81.65
2018-12-04T10:53:52.213Z,81.88
2018-12-04T10:56:20.532Z,82.71
2018-12-04T10:58:48.923Z,80.89
2018-12-04T11:01:27.473Z,81.40
2018-12-04T11:03:55.772Z,80.51
2018-12-04T11:06:24.074Z,80.81
2018-12-04T11:08:52.600Z,80.29
2018-12-04T11:11:20.901Z,79.17
2018-12-04T11:13:49.281Z,81.62
2018-12-04T11:16:17.939Z,81.16
2018-12-04T11:18:46.278Z,80.89
2018-12-04T11:21:14.854Z,81.92
2018-12-04T11:23:43.173Z,80.43
2018-12-04T11:26:11.466Z,80.98
2018-12-04T11:28:39.731Z,79.81
2018-12-04T11:31:08.030Z,79.72
2018-12-04T11:33:36.596Z,80.42
2018-12-04T11:36:05.236Z,79.88
2018-12-04T11:38:33.581Z,78.39
2018-12-04T11:41:01.926Z,78.17
2018-12-04T11:43:30.256Z,78.43
2018-12-04T11:45:58.654Z,78.10
2018-12-04T11:48:26.990Z,79.19
2018-12-04T11:51:00.165Z,79.00
2018-12-04T11:53:25.664Z,77.43
2018-12-04T11:55:54.092Z,78.02
2018-12-04T11:58:22.700Z,77.56
2018-12-04T12:00:51.209Z,78.57
2018-12-04T12:03:19.541Z,77.23
2018-12-04T12:05:48.019Z,77.49
2018-12-04T12:08:16.323Z,77.46
2018-12-04T12:10:44.697Z,79.01
2018-12-04T12:13:13.065Z,79.68
2018-12-04T12:15:41.521Z,77.37
2018-12-04T12:18:09.894Z,76.71
2018-12-04T12:20:38.494Z,77.37
2018-12-04T12:23:06.863Z,78.74
2018-12-04T12:25:35.179Z,77.16
2018-12-04T12:28:03.479Z,77.36
2018-12-04T12:30:31.767Z,78.05
2018-12-04T12:33:00.105Z,78.86
2018-12-04T12:35:28.469Z,77.79
2018-12-04T12:37:56.836Z,77.80
2018-12-04T12:40:25.220Z,80.62
2018-12-04T12:42:53.740Z,80.04
2018-12-04T12:45:22.082Z,80.30
2018-12-04T12:47:50.415Z,78.86
2018-12-04T12:50:18.861Z,77.42
2018-12-04T12:52:47.272Z,78.08
2018-12-04T12:55:15.726Z,76.55
2018-12-04T12:57:44.121Z,74.97
2018-12-04T13:00:12.548Z,75.89
2018-12-04T13:02:41.385Z,76.01
2018-12-04T13:05:09.781Z,74.97
2018-12-04T13:07:38.158Z,74.08
2018-12-04T13:10:09.534Z,74.83
2018-12-04T13:12:38.021Z,76.46
2018-12-04T13:15:08.273Z,76.16
2018-12-04T13:17:36.684Z,76.27
2018-12-04T13:20:06.447Z,77.33
2018-12-04T13:22:34.777Z,76.20
2018-12-04T13:25:03.214Z,77.42
2018-12-04T13:27:31.697Z,75.69
2018-12-04T13:30:00.000Z,75.93
2018-12-04T13:32:28.402Z,74.04
2018-12-04T13:34:57.151Z,74.45
2018-12-04T13:37:25.704Z,74.39
2018-12-04T13:39:54.404Z,74.72
2018-12-04T13:42:23.073Z,76.02
2018-12-04T13:44:51.498Z,77.75
2018-12-04T13:47:19.813Z,76.67
2018-12-04T13:49:48.391Z,76.93
2018-12-04T13:52:16.717Z,77.95
2018-12-04T13:54:45.134Z,77.11
2018-12-04T13:57:13.570Z,78.04
2018-12-04T13:59:41.990Z,81.51
2018-12-04T14:02:10.836Z,79.29
2018-12-04T14:04:39.258Z,79.89
2018-12-04T14:07:07.887Z,80.85
2018-12-04T14:09:36.360Z,79.89
2018-12-04T14:12:04.881Z,80.16
2018-12-04T14:14:33.295Z,79.80
2018-12-04T14:17:01.772Z,80.20
2018-12-04T14:19:30.045Z,79.39
2018-12-04T14:21:58.520Z,79.14
2018-12-04T14:24:26.893Z,79.79
2018-12-04T14:26:55.926Z,80.88
2018-12-04T14:29:24.435Z,79.96
2018-12-04T14:31:52.862Z,78.57
2018-12-04T14:34:21.229Z,79.25
2018-12-04T14:36:49.627Z,80.69
2018-12-04T14:39:17.999Z,79.12
2018-12-04T14:41:46.554Z,78.92
2018-12-04T14:44:15.095Z,80.10
2018-12-04T14:46:43.568Z,78.95
2018-12-04T14:49:12.008Z,79.29
2018-12-04T14:51:40.483Z,79.21
2018-12-04T14:54:08.908Z,78.80
2018-12-04T14:56:37.344Z,78.74
2018-12-04T14:59:05.957Z,80.46
2018-12-04T15:01:34.603Z,80.44
2018-12-04T15:04:03.171Z,82.16
2018-12-04T15:06:31.617Z,83.66
2018-12-04T15:09:01.153Z,84.64
2018-12-04T15:11:29.789Z,83.48
2018-12-04T15:13:58.330Z,82.57
2018-12-04T15:16:26.668Z,84.42
2018-12-04T15:18:54.964Z,80.68
2018-12-04T15:21:23.593Z,82.49
2018-12-04T15:23:52.083Z,83.41
2018-12-04T15:26:20.675Z,84.02
2018-12-04T15:28:49.238Z,85.88
2018-12-04T15:31:17.870Z,86.84
2018-12-04T15:33:46.268Z,87.60
2018-12-04T15:36:14.653Z,88.08
2018-12-04T15:38:43.029Z,89.06
2018-12-04T15:41:11.565Z,90.05
2018-12-04T15:43:39.945Z,90.44
2018-12-04T15:46:08.514Z,90.39
2018-12-04T15:48:36.976Z,90.31
2018-12-04T15:51:05.664Z,90.26
2018-12-04T15:53:34.015Z,91.29
2018-12-04T15:56:02.378Z,91.66
2018-12-04T15:58:30.757Z,90.92
2018-12-04T16:00:59.911Z,91.36
2018-12-04T16:03:28.420Z,90.31
2018-12-04T16:05:56.849Z,91.30
2018-12-04T16:08:25.192Z,91.22
2018-12-04T16:10:53.491Z,91.88
2018-12-04T16:13:21.949Z,92.04
2018-12-04T16:15:50.651Z,91.90
2018-12-04T16:18:19.045Z,91.95
2018-12-04T16:20:48.750Z,92.29
2018-12-04T16:23:17.360Z,92.55
2018-12-04T16:25:45.661Z,93.04
2018-12-04T16:28:13.968Z,93.00
2018-12-04T16:30:42.301Z,92.78
2018-12-04T16:33:10.810Z,92.62
2018-12-04T16:35:39.118Z,93.26
2018-12-04T16:38:07.444Z,93.83
2018-12-04T16:40:35.885Z,93.64
2018-12-04T16:43:04.445Z,93.43
2018-12-04T16:45:32.863Z,93.21
2018-12-04T16:48:01.375Z,94.81
2018-12-04T16:50:29.977Z,94.98
2018-12-04T16:52:58.405Z,94.13
2018-12-04T16:55:27.101Z,94.61
2018-12-04T16:57:55.409Z,93.99
2018-12-04T17:00:23.910Z,94.14
2018-12-04T17:02:52.293Z,94.23
2018-12-04T17:05:20.600Z,94.90
2018-12-04T17:07:49.305Z,94.76
2018-12-04T17:10:22.413Z,95.01
2018-12-04T17:12:48.282Z,95.90
2018-12-04T17:15:16.621Z,95.77
2018-12-04T17:17:45.015Z,95.40
2018-12-04T17:20:14.074Z,95.56
2018-12-04T17:22:42.513Z,95.68
2018-12-04T17:25:10.815Z,95.61
2018-12-04T17:27:39.241Z,95.59
2018-12-04T17:30:09.978Z,95.49
2018-12-04T17:32:38.325Z,95.47
2018-12-04T17:35:07.993Z,95.74
2018-12-04T17:37:36.372Z,95.89
2018-12-04T17:40:05.921Z,95.91
2018-12-04T17:42:34.416Z,96.54
2018-12-04T17:45:02.851Z,96.37
2018-12-04T17:47:31.261Z,96.29
2018-12-04T17:49:59.712Z,97.22
2018-12-04T17:52:29.509Z,96.24
2018-12-04T17:54:58.130Z,96.69
2018-12-04T17:57:26.513Z,96.46
2018-12-04T17:59:54.910Z,96.50
2018-12-04T18:02:23.254Z,96.70
2018-12-04T18:04:51.559Z,96.22
2018-12-04T18:07:19.930Z,96.21
2018-12-04T18:09:48.224Z,96.90
2018-12-04T18:12:16.606Z,97.18
2018-12-04T18:14:45.021Z,97.02
2018-12-04T18:17:13.433Z,96.81
2018-12-04T18:19:41.785Z,96.88
2018-12-04T18:22:10.301Z,97.05
2018-12-04T18:24:38.670Z,97.00
2018-12-04T18:27:07.081Z,97.39
2018-12-04T18:29:35.539Z,96.32
2018-12-04T18:32:04.353Z,96.89
2018-12-04T18:34:32.764Z,96.96
2018-12-04T18:37:01.257Z,96.75
2018-12-04T18:39:29.872Z,97.64
2018-12-04T18:41:58.141Z,96.91
2018-12-04T18:44:26.453Z,97.80
2018-12-04T18:46:54.869Z,97.87
2018-12-04T18:49:23.258Z,97.71
2018-12-04T18:51:51.595Z,97.24
2018-12-04T18:54:20.173Z,97.37
2018-12-04T18:56:48.610Z,97.40
2018-12-04T18:59:16.965Z,97.98
2018-12-04T19:01:45.438Z,98.08
2018-12-04T19:04:13.773Z,97.52
2018-12-04T19:06:42.272Z,97.54
2018-12-04T19:09:10.718Z,98.08
2018-12-04T19:11:39.150Z,97.97
2018-12-04T19:14:07.644Z,97.55
2018-12-04T19:16:36.144Z,97.45
2018-12-04T19:19:04.652Z,98.21
2018-12-04T19:21:33.092Z,98.35
2018-12-04T19:24:01.474Z,97.90
2018-12-04T19:26:29.826Z,98.00
2018-12-04T19:31:54.181Z,97.72
2018-12-04T19:34:22.493Z,97.64
2018-12-04T19:36:50.977Z,98.86
2018-12-04T19:39:19.405Z,98.92
2018-12-04T19:41:48.018Z,98.11
2018-12-04T19:44:16.640Z,98.09
2018-12-04T19:46:45.073Z,98.64
2018-12-04T19:49:15.115Z,98.96
2018-12-04T19:51:43.904Z,98.99
2018-12-04T19:54:12.223Z,98.33
2018-12-04T19:56:40.724Z,98.99
2018-12-04T19:59:09.277Z,99.31
2018-12-04T20:01:40.513Z,98.83
2018-12-04T20:04:09.250Z,99.69
2018-12-04T20:06:37.633Z,98.73
2018-12-04T20:09:08.083Z,99.30
2018-12-04T20:11:36.433Z,98.74
2018-12-04T20:14:05.069Z,98.60
2018-12-04T20:16:34.286Z,98.59
2018-12-04T20:19:02.666Z,99.32
2018-12-04T20:21:31.100Z,99.32
2018-12-04T20:23:59.496Z,99.58
2018-12-04T20:26:27.917Z,99.39
2018-12-04T20:28:56.380Z,98.64
2018-12-04T20:31:24.858Z,99.42
2018-12-04T20:33:53.349Z,99.11
2018-12-04T20:36:21.932Z,98.77
2018-12-04T20:38:50.609Z,99.59
2018-12-04T20:41:18.953Z,100.00
2018-12-04T20:43:47.332Z,98.96
2018-12-04T20:46:15.879Z,98.94
2018-12-04T20:48:44.468Z,99.17
2018-12-04T20:51:12.884Z,98.99
2018-12-04T20:53:41.456Z,98.90
2018-12-04T20:56:09.869Z,99.90
2018-12-04T20:58:38.239Z,99.55
2018-12-04T21:01:06.809Z,100.00
2018-12-04T21:03:35.117Z,99.32
2018-12-04T21:06:03.626Z,100.00
2018-12-04T21:08:32.049Z,100.00
2018-12-04T21:11:00.423Z,99.76
2018-12-04T21:13:28.746Z,99.66
2018-12-04T21:15:57.154Z,99.50
2018-12-04T21:18:25.700Z,100.00
2018-12-04T21:20:54.256Z,99.96
2018-12-04T21:23:22.608Z,100.00
2018-12-04T21:25:51.021Z,99.84
2018-12-04T21:28:25.045Z,99.68
2018-12-04T21:30:58.926Z,99.24
2018-12-04T21:33:32.597Z,99.22
2018-12-04T21:36:06.319Z,99.19
2018-12-04T21:38:39.889Z,99.76
2018-12-04T21:41:14.355Z,99.47
2018-12-04T21:43:48.102Z,99.07
2018-12-04T21:46:21.821Z,99.22
2018-12-04T21:48:50.153Z,99.98
2018-12-04T21:51:18.700Z,99.44
2018-12-04T21:53:47.652Z,99.78
2018-12-04T21:56:16.081Z,99.95
2018-12-04T21:58:44.453Z,99.98
2018-12-04T22:01:12.792Z,99.90
2018-12-04T22:03:41.308Z,99.95
2018-12-04T22:06:09.658Z,99.71
2018-12-04T22:08:38.121Z,99.25
2018-12-04T22:11:06.655Z,99.56
2018-12-04T22:13:35.048Z,99.87
2018-12-04T22:16:03.467Z,99.55
2018-12-04T22:18:31.778Z,99.17
2018-12-04T22:21:00.129Z,99.83
2018-12-04T22:23:28.496Z,99.90
2018-12-04T22:25:56.969Z,99.31
2018-12-04T22:28:25.789Z,99.66
2018-12-04T22:30:54.187Z,99.87
2018-12-04T22:33:22.772Z,99.45
2018-12-04T22:35:51.120Z,100.00
2018-12-04T22:38:19.427Z,99.83
2018-12-04T22:40:47.865Z,100.00
2018-12-04T22:43:16.219Z,100.00
2018-12-04T22:45:44.645Z,100.00
2018-12-04T22:48:13.006Z,100.00
2018-12-04T22:50:41.485Z,100.00
2018-12-04T22:53:09.966Z,100.00
2018-12-04T22:55:38.284Z,100.00
2018-12-04T22:58:06.618Z,100.00
2018-12-04T23:00:42.118Z,100.00
2018-12-04T23:03:10.897Z,100.00
2018-12-04T23:05:39.339Z,100.00
2018-12-04T23:08:07.856Z,100.00
2018-12-04T23:10:36.237Z,100.00
2018-12-04T23:13:04.724Z,100.00
2018-12-04T23:15:33.090Z,100.00
2018-12-04T23:18:01.385Z,100.00
2018-12-04T23:20:29.825Z,100.00
2018-12-04T23:22:58.135Z,100.00
2018-12-04T23:25:26.705Z,100.00
2018-12-04T23:27:55.033Z,100.00
2018-12-04T23:30:23.546Z,100.00
2018-12-04T23:32:51.855Z,100.00
2018-12-04T23:35:20.281Z,100.00
2018-12-04T23:37:48.735Z,100.00
2018-12-04T23:40:17.106Z,99.91
2018-12-04T23:42:45.435Z,99.83
2018-12-04T23:45:13.917Z,99.46
2018-12-04T23:47:42.283Z,100.00
2018-12-04T23:50:10.665Z,99.20
2018-12-04T23:52:38.981Z,99.55
2018-12-04T23:55:07.944Z,99.57
2018-12-04T23:57:36.287Z,99.78
